Time;durP1;ratioP1;P1;durP2;ratioP2;P2;SDS_P1;SDS_P2;PMS_P1;PMS_P2;Temp;Humidity;BMP_temperature;BMP_pressure;BME280_temperature;BME280_humidity;BME280_pressure;Samples;Min_cycle;Max_cycle;Signal;HPM_P1;HPM_P2
2022/09/19 00:02:25;;;;;;;19.95;2.85;;;11.90;99.90;;;;;;5071037;28;20127;-50
2022/09/19 00:04:52;;;;;;;20.83;3.00;;;11.90;99.90;;;;;;5043289;28;20056;-54
2022/09/19 00:07:19;;;;;;;13.10;2.45;;;11.90;99.90;;;;;;5061501;28;20059;-47
2022/09/19 00:09:47;;;;;;;17.65;2.30;;;11.90;99.90;;;;;;5056997;28;20099;-52
2022/09/19 00:12:14;;;;;;;16.75;2.35;;;11.80;99.90;;;;;;5060119;28;20134;-52
2022/09/19 00:14:41;;;;;;;13.30;2.38;;;11.90;99.90;;;;;;5069712;28;20489;-43
2022/09/19 00:17:08;;;;;;;13.18;2.20;;;11.90;99.90;;;;;;5060742;28;20075;-49
2022/09/19 00:19:35;;;;;;;11.65;1.75;;;11.90;99.90;;;;;;5052934;28;20090;-49
2022/09/19 00:22:02;;;;;;;9.98;1.38;;;11.90;99.90;;;;;;5046353;28;20064;-48
2022/09/19 00:24:46;;;;;;;12.50;1.83;;;11.90;99.90;;;;;;5053944;28;20036;-54
2022/09/19 00:27:16;;;;;;;12.10;1.70;;;11.90;99.90;;;;;;5052896;28;20044;-47
2022/09/19 00:29:43;;;;;;;11.40;1.80;;;11.80;99.90;;;;;;5072327;28;20135;-48
2022/09/19 00:32:12;;;;;;;13.38;1.63;;;11.80;99.90;;;;;;5048710;28;20079;-54
2022/09/19 00:34:39;;;;;;;13.20;1.73;;;11.90;99.90;;;;;;5064822;28;20079;-51
2022/09/19 00:37:06;;;;;;;17.38;2.20;;;11.90;99.90;;;;;;5057437;28;20056;-50
2022/09/19 00:39:33;;;;;;;12.38;1.90;;;11.90;99.90;;;;;;5054054;28;20055;-47
2022/09/19 00:42:00;;;;;;;12.25;2.10;;;11.90;99.90;;;;;;5069001;28;20083;-47
2022/09/19 00:44:52;;;;;;;12.15;2.10;;;11.90;99.90;;;;;;5068889;28;20049;-49
2022/09/19 00:47:24;;;;;;;8.63;1.88;;;11.90;99.90;;;;;;5048796;28;20052;-53
2022/09/19 00:49:51;;;;;;;10.95;1.85;;;11.90;99.90;;;;;;5046441;28;20475;-50
2022/09/19 00:52:21;;;;;;;9.35;1.45;;;11.90;99.90;;;;;;5060947;28;20053;-52
2022/09/19 00:54:49;;;;;;;13.00;1.77;;;11.90;99.90;;;;;;5062368;28;20044;-50
2022/09/19 00:57:16;;;;;;;19.00;2.97;;;12.00;99.90;;;;;;5071693;28;20049;-49
2022/09/19 00:59:46;;;;;;;16.92;2.55;;;11.90;99.90;;;;;;5072022;28;20060;-50
2022/09/19 01:02:18;;;;;;;11.57;2.47;;;11.90;99.90;;;;;;5068081;28;20453;-47
2022/09/19 01:04:45;;;;;;;16.85;2.78;;;11.90;99.90;;;;;;5050642;28;20061;-48
2022/09/19 01:07:14;;;;;;;14.75;2.10;;;11.90;99.90;;;;;;5066515;28;20049;-50
2022/09/19 01:09:44;;;;;;;16.27;2.03;;;11.90;99.90;;;;;;5070978;28;20106;-44
2022/09/19 01:12:31;;;;;;;12.40;1.73;;;11.90;99.90;;;;;;5061965;28;20496;-50
2022/09/19 01:15:13;;;;;;;14.77;2.25;;;11.90;99.90;;;;;;5063883;28;20044;-47
2022/09/19 01:17:45;;;;;;;16.98;2.92;;;11.90;99.90;;;;;;5045830;28;20127;-50
2022/09/19 01:20:42;;;;;;;16.90;2.38;;;11.80;99.90;;;;;;5039804;28;20436;-50
2022/09/19 01:23:36;;;;;;;16.30;3.05;;;11.80;99.90;;;;;;5045240;28;20579;-51
2022/09/19 01:26:09;;;;;;;10.52;2.13;;;11.80;99.90;;;;;;5067448;28;20077;-50
2022/09/19 01:28:37;;;;;;;15.38;2.30;;;11.80;99.90;;;;;;5067070;28;20048;-51
2022/09/19 01:31:19;;;;;;;14.07;2.17;;;11.80;99.90;;;;;;5034997;28;20063;-50
2022/09/19 01:33:53;;;;;;;16.05;2.45;;;11.80;99.90;;;;;;5069252;28;20542;-51
2022/09/19 01:36:20;;;;;;;23.88;2.70;;;11.80;99.90;;;;;;5050706;28;20045;-49
2022/09/19 01:38:47;;;;;;;18.33;2.53;;;11.80;99.90;;;;;;5050005;28;20107;-50
2022/09/19 01:41:14;;;;;;;16.35;2.50;;;11.80;99.90;;;;;;5052511;28;20048;-51
2022/09/19 01:43:42;;;;;;;19.40;2.90;;;11.90;99.90;;;;;;5057888;28;20056;-48
2022/09/19 01:46:12;;;;;;;21.35;3.03;;;11.80;99.90;;;;;;5064075;28;20044;-48
2022/09/19 01:48:43;;;;;;;20.85;2.42;;;11.80;99.90;;;;;;5053678;28;20425;-49
2022/09/19 01:51:18;;;;;;;15.85;2.30;;;11.80;99.90;;;;;;5052048;28;20452;-50
2022/09/19 01:53:53;;;;;;;16.67;2.42;;;11.80;99.90;;;;;;5050568;28;20700;-50
2022/09/19 01:56:28;;;;;;;26.75;3.20;;;11.90;99.90;;;;;;5070153;28;20045;-52
2022/09/19 01:59:00;;;;;;;19.50;2.97;;;11.80;99.90;;;;;;5054144;28;20052;-51
2022/09/19 02:01:29;;;;;;;23.65;3.08;;;11.90;99.90;;;;;;5046718;28;20056;-51
2022/09/19 02:04:01;;;;;;;24.75;3.05;;;11.80;99.90;;;;;;5049754;28;20072;-49
2022/09/19 02:06:28;;;;;;;;;;;11.90;99.90;;;;;;5059006;28;20401;-49
2022/09/19 02:08:59;;;;;;;15.32;2.60;;;11.80;99.90;;;;;;5043709;28;20003;-49
2022/09/19 02:11:27;;;;;;;18.58;2.80;;;11.80;99.90;;;;;;5045540;28;20053;-49
2022/09/19 02:13:57;;;;;;;17.77;2.78;;;11.80;99.90;;;;;;5053407;28;20499;-49
2022/09/19 02:16:26;;;;;;;14.02;2.30;;;11.90;99.90;;;;;;5053492;28;20098;-48
2022/09/19 02:18:54;;;;;;;16.95;2.53;;;11.90;99.90;;;;;;5054335;28;20055;-52
2022/09/19 02:21:25;;;;;;;21.00;2.50;;;11.90;99.90;;;;;;5053689;28;20484;-51
2022/09/19 02:23:53;;;;;;;19.20;3.10;;;11.90;99.90;;;;;;5051700;28;20062;-54
2022/09/19 02:26:21;;;;;;;23.08;3.10;;;11.90;99.90;;;;;;5052286;28;20048;-53
2022/09/19 02:28:49;;;;;;;18.20;2.42;;;11.90;99.90;;;;;;5070167;28;20124;-50
2022/09/19 02:31:18;;;;;;;21.35;2.83;;;11.90;99.90;;;;;;5069356;28;20433;-50
2022/09/19 02:33:46;;;;;;;16.83;2.38;;;11.90;99.90;;;;;;5044854;28;20056;-53
2022/09/19 02:36:15;;;;;;;15.93;2.97;;;11.90;99.90;;;;;;5054870;28;20461;-56
2022/09/19 02:38:46;;;;;;;15.55;2.28;;;11.90;99.90;;;;;;5068731;28;20066;-47
2022/09/19 02:41:21;;;;;;;18.33;2.38;;;11.90;99.90;;;;;;5068945;28;20055;-48
2022/09/19 02:43:50;;;;;;;19.00;2.47;;;11.90;99.90;;;;;;5049062;28;20403;-51
2022/09/19 02:46:20;;;;;;;19.42;2.60;;;11.90;99.90;;;;;;5063114;28;20813;-49
2022/09/19 02:48:51;;;;;;;20.02;2.90;;;11.80;99.90;;;;;;5046218;28;20056;-52
2022/09/19 02:51:20;;;;;;;17.42;2.33;;;11.80;99.90;;;;;;5067224;28;20048;-49
2022/09/19 02:53:48;;;;;;;18.25;2.80;;;11.80;99.90;;;;;;5074942;28;20497;-46
2022/09/19 02:56:16;;;;;;;15.40;2.28;;;11.80;99.90;;;;;;5057696;28;20102;-51
2022/09/19 02:58:46;;;;;;;17.25;1.83;;;11.80;99.90;;;;;;5056087;28;20584;-51
2022/09/19 03:01:15;;;;;;;22.10;2.30;;;11.80;99.90;;;;;;5064902;28;20481;-52
2022/09/19 03:06:31;;;;;;;21.17;2.88;;;11.70;99.90;;;;;;5054986;28;20052;-52
2022/09/19 03:08:58;;;;;;;23.23;3.20;;;11.80;99.90;;;;;;5054095;28;20103;-52
2022/09/19 03:11:25;;;;;;;18.65;2.72;;;11.80;99.90;;;;;;5067140;28;20052;-50
2022/09/19 03:13:52;;;;;;;14.15;2.03;;;11.80;99.90;;;;;;5072500;28;20052;-47
2022/09/19 03:16:20;;;;;;;14.48;2.70;;;11.80;99.90;;;;;;5050536;28;20055;-49
2022/09/19 03:18:54;;;;;;;21.23;2.40;;;11.70;99.90;;;;;;5057034;28;20139;-52
2022/09/19 03:21:22;;;;;;;16.92;2.50;;;11.70;99.90;;;;;;5057287;28;20053;-51
2022/09/19 03:23:50;;;;;;;23.30;2.50;;;11.70;99.90;;;;;;5055926;28;20488;-51
2022/09/19 03:26:20;;;;;;;22.13;2.88;;;11.70;99.90;;;;;;5050147;28;20461;-48
2022/09/19 03:28:47;;;;;;;20.40;2.45;;;11.60;99.90;;;;;;5072400;28;20052;-49
2022/09/19 03:31:14;;;;;;;20.30;2.50;;;11.60;99.90;;;;;;5043358;28;20072;-47
2022/09/19 03:33:41;;;;;;;19.60;2.50;;;11.60;99.90;;;;;;5069445;28;20103;-49
2022/09/19 03:36:09;;;;;;;22.27;2.50;;;11.60;99.90;;;;;;5067649;28;20044;-50
2022/09/19 03:38:36;;;;;;;20.92;2.60;;;11.60;99.90;;;;;;5057480;28;20040;-48
2022/09/19 03:41:03;;;;;;;16.75;2.45;;;11.50;99.90;;;;;;5064275;28;20127;-48
2022/09/19 03:43:30;;;;;;;15.77;2.10;;;11.50;99.90;;;;;;5070205;28;20121;-45
2022/09/19 03:45:57;;;;;;;22.17;2.42;;;11.50;99.90;;;;;;5069643;28;20114;-47
2022/09/19 03:48:26;;;;;;;20.13;2.78;;;11.50;99.90;;;;;;5053840;28;20040;-49
2022/09/19 03:50:53;;;;;;;16.52;2.30;;;11.50;99.90;;;;;;5071304;28;20080;-50
2022/09/19 03:53:21;;;;;;;16.15;2.40;;;11.50;99.90;;;;;;5071164;28;20045;-51
2022/09/19 03:55:48;;;;;;;20.60;2.33;;;11.50;99.90;;;;;;5066385;28;20460;-51
2022/09/19 03:58:16;;;;;;;20.75;2.50;;;11.50;99.90;;;;;;5073325;28;20114;-52
2022/09/19 04:00:43;;;;;;;18.38;2.53;;;11.50;99.90;;;;;;5068210;28;20072;-51
2022/09/19 04:03:10;;;;;;;30.00;3.08;;;11.50;99.90;;;;;;5025212;28;20115;-52
2022/09/19 04:05:37;;;;;;;15.35;1.95;;;11.50;99.90;;;;;;5043095;28;20127;-50
2022/09/19 04:08:04;;;;;;;21.85;2.55;;;11.50;99.90;;;;;;5049229;28;20061;-51
2022/09/19 04:10:32;;;;;;;17.75;2.10;;;11.50;99.90;;;;;;5041234;28;20182;-52
2022/09/19 04:12:59;;;;;;;19.20;2.28;;;11.60;99.90;;;;;;5040482;28;20132;-51
2022/09/19 04:15:26;;;;;;;13.52;1.83;;;11.60;99.90;;;;;;5046367;28;20160;-51
2022/09/19 04:17:52;;;;;;;20.35;2.60;;;11.60;99.90;;;;;;5052467;28;20111;-48
2022/09/19 04:20:19;;;;;;;16.58;2.80;;;11.60;99.90;;;;;;5026863;28;20120;-45
2022/09/19 04:22:46;;;;;;;11.68;1.90;;;11.60;99.90;;;;;;5052587;28;20085;-50
2022/09/19 04:25:13;;;;;;;16.30;2.42;;;11.60;99.90;;;;;;5033799;28;20135;-52
2022/09/19 04:27:44;;;;;;;15.25;2.33;;;11.60;99.90;;;;;;5038821;28;20055;-51
2022/09/19 04:30:14;;;;;;;23.75;3.05;;;11.60;99.90;;;;;;5032244;28;20064;-48
2022/09/19 04:32:42;;;;;;;19.52;2.65;;;11.60;99.90;;;;;;5036133;28;20044;-46
2022/09/19 04:35:09;;;;;;;13.27;2.17;;;11.60;99.90;;;;;;5031817;28;20428;-49
2022/09/19 04:37:36;;;;;;;14.10;2.20;;;11.60;99.90;;;;;;5045384;28;20103;-50
2022/09/19 04:40:03;;;;;;;18.42;2.28;;;11.60;99.90;;;;;;5025255;28;20213;-51
2022/09/19 04:42:34;;;;;;;15.10;2.78;;;11.50;99.90;;;;;;5044857;28;20052;-50
2022/09/19 04:45:02;;;;;;;14.90;2.08;;;11.50;99.90;;;;;;5048757;28;20045;-51
2022/09/19 04:47:32;;;;;;;18.65;2.65;;;11.50;99.90;;;;;;5015796;28;20060;-49
2022/09/19 04:50:00;;;;;;;21.80;2.25;;;11.50;99.90;;;;;;5052932;28;20055;-49
2022/09/19 04:52:26;;;;;;;13.68;1.80;;;11.50;99.90;;;;;;5045744;28;20201;-50
2022/09/19 04:54:54;;;;;;;11.18;2.13;;;11.50;99.90;;;;;;5037516;28;20128;-50
2022/09/19 04:57:21;;;;;;;18.83;2.40;;;11.50;99.90;;;;;;5060978;28;20052;-53
2022/09/19 04:59:48;;;;;;;13.82;2.05;;;11.50;99.90;;;;;;5072283;28;20101;-50
2022/09/19 05:02:16;;;;;;;18.23;2.35;;;11.50;99.90;;;;;;5050310;28;20053;-49
2022/09/19 05:04:45;;;;;;;17.05;2.20;;;11.50;99.90;;;;;;5043896;28;20106;-42
2022/09/19 05:07:13;;;;;;;18.08;2.30;;;11.50;99.90;;;;;;5028753;28;20132;-52
2022/09/19 05:09:42;;;;;;;16.98;2.47;;;11.50;99.90;;;;;;5033896;28;20057;-50
2022/09/19 05:12:09;;;;;;;16.35;2.58;;;11.50;99.90;;;;;;5026943;28;20049;-48
2022/09/19 05:14:36;;;;;;;15.10;2.30;;;11.50;99.90;;;;;;5027056;28;20460;-52
2022/09/19 05:17:03;;;;;;;10.75;2.20;;;11.50;99.90;;;;;;5048139;28;20111;-50
2022/09/19 05:19:32;;;;;;;19.52;2.70;;;11.50;99.90;;;;;;5033196;28;20060;-54
2022/09/19 05:21:58;;;;;;;21.35;3.22;;;11.50;99.90;;;;;;5049576;28;20049;-46
2022/09/19 05:24:25;;;;;;;21.38;3.20;;;11.50;99.90;;;;;;5048065;28;20065;-53
2022/09/19 05:26:54;;;;;;;22.60;2.78;;;11.50;99.90;;;;;;5044392;28;20057;-47
2022/09/19 05:29:21;;;;;;;17.35;2.45;;;11.50;99.90;;;;;;5057228;28;20931;-48
2022/09/19 05:31:48;;;;;;;13.25;2.25;;;11.50;99.90;;;;;;5050124;28;20135;-50
2022/09/19 05:34:14;;;;;;;20.13;2.00;;;11.50;99.90;;;;;;5049567;28;20045;-52
2022/09/19 05:36:47;;;;;;;19.13;3.00;;;11.60;99.90;;;;;;5070306;28;20105;-51
2022/09/19 05:39:14;;;;;;;17.58;2.40;;;11.60;99.90;;;;;;5043645;28;20090;-50
2022/09/19 05:41:41;;;;;;;14.65;2.58;;;11.60;99.90;;;;;;5033581;28;20052;-47
2022/09/19 05:44:07;;;;;;;15.73;2.65;;;11.60;99.90;;;;;;5029149;28;20127;-50
2022/09/19 05:46:34;;;;;;;20.77;2.38;;;11.60;99.90;;;;;;5036020;28;20053;-53
2022/09/19 05:49:01;;;;;;;18.40;2.80;;;11.60;99.90;;;;;;5051023;28;20052;-46
2022/09/19 05:51:28;;;;;;;16.73;2.17;;;11.60;99.90;;;;;;5031897;28;20479;-50
2022/09/19 05:53:56;;;;;;;11.82;2.33;;;11.60;99.90;;;;;;5030241;28;20131;-54
2022/09/19 05:56:23;;;;;;;14.85;2.70;;;11.60;99.90;;;;;;5051422;28;20056;-52
2022/09/19 05:58:53;;;;;;;15.68;1.75;;;11.60;99.90;;;;;;5052932;28;20076;-51
2022/09/19 06:01:19;;;;;;;15.40;2.10;;;11.60;99.90;;;;;;5025327;28;20084;-51
2022/09/19 06:03:46;;;;;;;21.23;2.15;;;11.60;99.90;;;;;;5047919;28;20128;-51
2022/09/19 06:06:18;;;;;;;18.20;3.58;;;11.50;99.90;;;;;;5052435;28;20085;-48
2022/09/19 06:08:45;;;;;;;11.98;2.22;;;11.50;99.90;;;;;;5051475;28;20041;-48
2022/09/19 06:11:13;;;;;;;11.77;1.92;;;11.50;99.90;;;;;;5062593;28;20131;-50
2022/09/19 06:16:24;;;;;;;26.40;2.58;;;11.50;99.90;;;;;;5076419;28;20370;-49
2022/09/19 06:18:51;;;;;;;12.30;1.92;;;11.50;99.90;;;;;;5058435;28;20151;-50
2022/09/19 06:21:18;;;;;;;11.75;1.70;;;11.50;99.90;;;;;;5071671;28;20986;-44
2022/09/19 06:23:45;;;;;;;15.93;2.22;;;11.50;99.90;;;;;;5072408;28;20076;-53
2022/09/19 06:26:13;;;;;;;15.05;2.15;;;11.50;99.90;;;;;;5058081;28;20056;-51
2022/09/19 06:28:40;;;;;;;16.10;2.20;;;11.50;99.90;;;;;;5057911;28;20048;-50
2022/09/19 06:31:07;;;;;;;16.95;2.17;;;11.60;99.90;;;;;;5075864;28;20080;-41
2022/09/19 06:33:34;;;;;;;21.10;2.15;;;11.60;99.90;;;;;;5058244;28;20044;-52
2022/09/19 06:36:01;;;;;;;18.23;2.20;;;11.60;99.90;;;;;;5075747;28;20127;-45
2022/09/19 06:38:30;;;;;;;11.23;2.38;;;11.60;99.90;;;;;;5056103;28;20108;-49
2022/09/19 06:40:58;;;;;;;17.70;1.83;;;11.70;99.90;;;;;;5057851;28;20374;-51
2022/09/19 06:43:26;;;;;;;12.18;1.90;;;11.70;99.90;;;;;;5071662;28;20055;-52
2022/09/19 06:45:53;;;;;;;13.35;2.15;;;11.70;99.90;;;;;;5055847;28;20072;-49
2022/09/19 06:48:20;;;;;;;17.40;2.10;;;11.70;99.90;;;;;;5055366;28;20056;-51
2022/09/19 06:50:47;;;;;;;12.43;1.75;;;11.70;99.90;;;;;;5037818;28;20061;-52
2022/09/19 06:53:14;;;;;;;12.35;1.90;;;11.70;99.90;;;;;;5055428;28;20049;-49
2022/09/19 06:55:40;;;;;;;19.73;2.28;;;11.70;99.90;;;;;;5051566;28;20049;-53
2022/09/19 06:58:08;;;;;;;15.32;1.88;;;11.70;99.90;;;;;;5071465;28;20096;-48
2022/09/19 07:00:37;;;;;;;15.63;2.08;;;11.80;99.90;;;;;;5075480;28;20053;-50
2022/09/19 07:03:05;;;;;;;12.77;1.98;;;11.80;99.90;;;;;;5075338;28;20385;-49
2022/09/19 07:05:32;;;;;;;14.32;1.75;;;11.90;99.90;;;;;;5073379;28;20083;-50
2022/09/19 07:07:59;;;;;;;12.80;2.10;;;11.90;99.90;;;;;;5075189;28;20123;-46
2022/09/19 07:10:26;;;;;;;13.38;2.67;;;12.00;99.90;;;;;;5056937;28;20049;-47
2022/09/19 07:12:52;;;;;;;18.92;2.60;;;12.00;99.90;;;;;;5057388;28;20106;-49
2022/09/19 07:15:20;;;;;;;17.23;2.13;;;12.10;99.90;;;;;;5064132;28;20052;-48
2022/09/19 07:17:48;;;;;;;14.32;2.20;;;12.10;99.90;;;;;;5057288;28;20090;-52
2022/09/19 07:20:15;;;;;;;11.13;2.00;;;12.30;99.90;;;;;;5074759;28;20052;-48
2022/09/19 07:22:42;;;;;;;14.68;2.17;;;12.30;99.90;;;;;;5055974;28;20102;-48
2022/09/19 07:25:09;;;;;;;18.83;2.20;;;12.40;99.90;;;;;;5064618;28;20048;-47
2022/09/19 07:27:36;;;;;;;18.15;2.50;;;12.50;99.90;;;;;;5074913;28;20052;-48
2022/09/19 07:30:03;;;;;;;17.35;2.60;;;12.50;99.90;;;;;;5058170;28;20264;-50
2022/09/19 07:32:30;;;;;;;9.75;1.98;;;12.60;99.90;;;;;;5054715;28;20053;-47
2022/09/19 07:34:58;;;;;;;17.90;2.20;;;12.70;99.90;;;;;;5037254;28;20053;-51
2022/09/19 07:37:24;;;;;;;16.85;2.13;;;12.80;99.90;;;;;;5054340;28;20140;-49
2022/09/19 07:39:51;;;;;;;18.02;2.03;;;12.90;99.90;;;;;;5036695;28;20488;-48
2022/09/19 07:42:20;;;;;;;13.98;2.30;;;12.90;99.90;;;;;;5036872;28;20088;-50
2022/09/19 07:44:46;;;;;;;15.35;2.10;;;13.00;99.90;;;;;;5036860;28;20119;-45
2022/09/19 07:47:28;;;;;;;22.40;2.38;;;13.20;99.90;;;;;;5053589;28;20098;-47
2022/09/19 07:49:55;;;;;;;14.68;1.90;;;13.30;99.90;;;;;;5054210;28;20107;-49
2022/09/19 07:52:23;;;;;;;17.10;2.80;;;13.50;99.90;;;;;;5063383;28;20456;-48
2022/09/19 07:54:50;;;;;;;13.95;1.85;;;13.60;99.90;;;;;;5056132;28;20092;-48
2022/09/19 07:57:17;;;;;;;20.73;2.70;;;13.70;99.90;;;;;;5074027;28;20055;-46
2022/09/19 07:59:44;;;;;;;19.33;2.75;;;13.90;99.90;;;;;;5056554;28;20056;-51
2022/09/19 08:02:11;;;;;;;16.98;2.58;;;14.00;99.90;;;;;;5056327;28;20472;-50
2022/09/19 08:04:38;;;;;;;19.27;2.40;;;14.00;99.90;;;;;;5056195;28;20060;-48
2022/09/19 08:07:05;;;;;;;18.48;2.58;;;14.10;99.90;;;;;;5072177;28;20048;-49
2022/09/19 08:09:33;;;;;;;22.83;3.15;;;14.20;99.90;;;;;;5056428;28;20092;-47
2022/09/19 08:12:02;;;;;;;15.73;2.33;;;14.40;99.90;;;;;;5073883;28;20063;-50
2022/09/19 08:14:29;;;;;;;14.13;2.47;;;14.50;99.90;;;;;;5056197;28;20056;-46
2022/09/19 08:16:56;;;;;;;19.10;2.72;;;14.60;99.90;;;;;;5056145;28;20098;-48
2022/09/19 08:19:22;;;;;;;19.42;3.38;;;14.60;99.90;;;;;;5052427;28;20145;-46
2022/09/19 08:21:50;;;;;;;15.52;2.28;;;14.60;99.90;;;;;;5073799;28;20135;-51
2022/09/19 08:24:17;;;;;;;20.88;2.47;;;14.70;99.90;;;;;;5071982;28;20418;-46
2022/09/19 08:26:45;;;;;;;17.02;2.83;;;14.80;99.90;;;;;;5073510;28;20103;-43
2022/09/19 08:29:13;;;;;;;18.13;2.50;;;14.90;99.90;;;;;;5055437;28;20083;-47
2022/09/19 08:31:39;;;;;;;16.95;2.50;;;15.00;99.90;;;;;;5055920;28;20060;-48
2022/09/19 08:34:08;;;;;;;15.32;2.40;;;15.20;99.90;;;;;;5073177;28;20052;-44
2022/09/19 08:36:35;;;;;;;13.93;2.55;;;15.30;99.90;;;;;;5055523;28;20059;-46
2022/09/19 08:39:02;;;;;;;16.30;2.67;;;15.50;99.90;;;;;;5070857;28;20076;-50
2022/09/19 08:41:52;;;;;;;14.13;2.70;;;15.60;99.90;;;;;;5039366;28;20049;-47
2022/09/19 08:44:22;;;;;;;21.52;3.05;;;15.70;99.90;;;;;;5053322;28;20220;-49
2022/09/19 08:46:53;;;;;;;16.42;2.70;;;15.70;99.90;;;;;;5053158;28;20049;-44
2022/09/19 08:49:20;;;;;;;20.35;2.72;;;15.80;99.90;;;;;;5061960;28;20148;-48
2022/09/19 08:51:51;;;;;;;15.10;2.88;;;15.90;99.90;;;;;;5073172;28;20480;-48
2022/09/19 08:54:19;;;;;;;17.88;2.47;;;16.00;99.90;;;;;;5072970;28;20619;-49
2022/09/19 08:56:46;;;;;;;20.23;2.83;;;16.10;99.90;;;;;;5072865;28;20056;-49
2022/09/19 08:59:16;;;;;;;17.58;2.50;;;16.20;99.90;;;;;;5072882;28;20567;-49
2022/09/19 09:01:42;;;;;;;15.65;2.58;;;16.30;99.90;;;;;;5072710;28;20050;-44
2022/09/19 09:04:17;;;;;;;14.45;2.53;;;16.40;99.90;;;;;;5052950;28;20052;-43
2022/09/19 09:06:50;;;;;;;18.10;2.85;;;16.50;99.90;;;;;;5055002;28;20121;-48
2022/09/19 09:09:20;;;;;;;15.38;2.90;;;16.60;99.90;;;;;;5055287;28;20048;-47
2022/09/19 09:11:51;;;;;;;14.32;2.40;;;16.60;99.90;;;;;;5073066;28;20052;-48
2022/09/19 09:14:22;;;;;;;10.13;2.15;;;16.60;99.90;;;;;;5072791;28;20518;-48
2022/09/19 09:16:56;;;;;;;11.63;1.48;;;16.50;99.90;;;;;;5073012;28;20049;-45
2022/09/19 09:19:37;;;;;;;10.80;1.60;;;16.30;99.90;;;;;;5072727;28;20147;-48
2022/09/19 09:22:07;;;;;;;8.33;1.57;;;16.10;99.90;;;;;;5069656;28;20098;-43
2022/09/19 09:24:35;;;;;;;9.75;1.60;;;15.90;99.90;;;;;;5054949;28;20084;-49
2022/09/19 09:27:04;;;;;;;14.38;2.33;;;15.70;99.90;;;;;;5072593;28;20650;-46
2022/09/19 09:29:35;;;;;;;12.13;1.77;;;15.50;99.90;;;;;;5054882;28;20052;-47
2022/09/19 09:32:04;;;;;;;14.57;1.92;;;15.40;99.90;;;;;;5071520;28;20044;-49
2022/09/19 09:34:34;;;;;;;17.52;2.50;;;15.30;99.90;;;;;;5054493;28;20067;-47
2022/09/19 09:37:03;;;;;;;8.23;1.65;;;15.30;99.90;;;;;;5072642;28;20186;-48
2022/09/19 09:39:39;;;;;;;11.05;2.40;;;15.40;99.90;;;;;;5070673;28;20052;-45
2022/09/19 09:42:08;;;;;;;10.25;1.73;;;15.50;99.90;;;;;;5015337;28;20460;-50
2022/09/19 09:44:51;;;;;;;13.63;1.95;;;15.50;99.90;;;;;;5043797;28;20049;-51
2022/09/19 09:47:21;;;;;;;13.75;2.10;;;15.50;99.90;;;;;;5059212;28;20489;-49
2022/09/19 09:49:49;;;;;;;9.30;2.58;;;15.70;99.90;;;;;;5076361;28;20052;-45
2022/09/19 09:52:28;;;;;;;13.50;2.38;;;15.80;99.90;;;;;;5068618;28;20642;-51
2022/09/19 09:57:50;;;;;;;14.85;2.38;;;16.20;99.90;;;;;;5066926;28;20049;-46
2022/09/19 10:03:35;;;;;;;15.13;2.65;;;16.40;99.90;;;;;;5076621;28;20097;-47
2022/09/19 10:06:06;;;;;;;17.05;2.42;;;16.50;99.90;;;;;;5076548;28;20106;-46
2022/09/19 10:08:35;;;;;;;13.77;2.35;;;16.60;99.90;;;;;;5058863;28;20061;-49
2022/09/19 10:11:05;;;;;;;14.45;2.45;;;16.80;99.90;;;;;;5076190;28;20052;-46
2022/09/19 10:13:39;;;;;;;17.50;2.60;;;16.90;99.90;;;;;;5076277;28;20041;-44
2022/09/19 10:16:07;;;;;;;15.48;2.55;;;17.10;99.90;;;;;;5073567;28;20040;-44
2022/09/19 10:18:40;;;;;;;8.98;2.08;;;17.20;99.90;;;;;;5075863;28;20555;-49
2022/09/19 10:21:06;;;;;;;12.13;2.17;;;17.40;99.90;;;;;;5076027;28;20048;-49
2022/09/19 10:23:33;;;;;;;14.65;1.92;;;17.40;99.90;;;;;;5075748;28;20048;-49
2022/09/19 10:26:02;;;;;;;12.15;2.03;;;17.40;99.90;;;;;;5058282;28;20049;-46
2022/09/19 10:28:31;;;;;;;10.98;2.00;;;17.30;99.90;;;;;;5075862;28;20099;-48
2022/09/19 10:30:59;;;;;;;10.38;1.52;;;17.30;99.90;;;;;;5075664;28;20083;-48
2022/09/19 10:33:31;;;;;;;7.40;1.40;;;17.40;99.90;;;;;;5075760;28;20044;-50
2022/09/19 10:35:59;;;;;;;8.38;1.80;;;17.50;99.80;;;;;;5055738;28;20052;-47
2022/09/19 10:38:26;;;;;;;12.25;1.90;;;17.60;99.30;;;;;;5075255;28;20428;-45
2022/09/19 10:40:55;;;;;;;11.50;1.90;;;17.70;99.00;;;;;;5070595;28;20392;-46
2022/09/19 10:43:22;;;;;;;10.73;2.08;;;17.80;98.90;;;;;;5075519;28;20083;-50
2022/09/19 10:45:49;;;;;;;12.10;2.35;;;18.00;98.90;;;;;;5058034;28;20467;-50
2022/09/19 10:48:17;;;;;;;14.63;2.80;;;18.20;99.10;;;;;;5075432;28;20083;-50
2022/09/19 10:50:47;;;;;;;16.55;2.38;;;18.30;99.00;;;;;;5075622;28;20050;-49
2022/09/19 10:53:18;;;;;;;18.58;3.20;;;18.20;98.30;;;;;;5073583;28;20389;-48
2022/09/19 10:55:45;;;;;;;13.48;2.85;;;18.00;98.50;;;;;;5075375;28;20135;-49
2022/09/19 10:58:16;;;;;;;10.20;1.88;;;17.80;98.40;;;;;;5054175;28;20053;-49
2022/09/19 11:00:49;;;;;;;11.32;2.47;;;17.70;98.30;;;;;;5057715;28;20154;-49
2022/09/19 11:03:23;;;;;;;18.13;2.70;;;17.60;98.90;;;;;;5055170;28;20044;-52
2022/09/19 11:06:12;;;;;;;14.50;2.70;;;17.50;99.60;;;;;;5054954;28;20059;-49
2022/09/19 11:08:43;;;;;;;16.30;3.00;;;17.40;99.90;;;;;;5034472;28;20057;-50
2022/09/19 11:11:22;;;;;;;19.80;3.30;;;17.30;99.90;;;;;;5053402;28;20462;-50
2022/09/19 11:14:06;;;;;;;20.65;2.80;;;17.40;99.90;;;;;;5036317;28;20041;-52
2022/09/19 11:16:37;;;;;;;18.63;2.58;;;17.60;99.90;;;;;;5055050;28;20465;-49
2022/09/19 11:19:15;;;;;;;14.93;2.47;;;17.80;99.90;;;;;;5054848;28;20060;-50
2022/09/19 11:21:50;;;;;;;12.70;2.50;;;18.00;99.90;;;;;;5054974;28;20057;-49
2022/09/19 11:24:25;;;;;;;15.98;3.00;;;18.20;99.90;;;;;;5054864;28;20092;-50
2022/09/19 11:27:02;;;;;;;14.20;2.47;;;18.30;99.90;;;;;;5037028;28;20130;-49
2022/09/19 11:29:39;;;;;;;19.23;2.95;;;18.40;98.90;;;;;;5024642;28;20076;-45
2022/09/19 11:32:10;;;;;;;18.77;2.67;;;18.20;98.20;;;;;;5043875;28;20047;-47
2022/09/19 11:34:41;;;;;;;17.23;3.03;;;18.10;98.40;;;;;;5054757;28;20135;-44
2022/09/19 11:37:14;;;;;;;16.52;2.97;;;18.20;98.60;;;;;;5054626;28;20404;-50
2022/09/19 11:39:51;;;;;;;17.40;3.30;;;18.30;98.30;;;;;;5028414;28;20148;-44
2022/09/19 11:42:24;;;;;;;18.25;2.97;;;18.40;97.70;;;;;;5017095;28;20060;-50
2022/09/19 11:44:57;;;;;;;21.38;3.15;;;18.30;97.40;;;;;;5049141;28;20096;-48
2022/09/19 11:48:01;;;;;;;14.27;2.70;;;18.10;98.30;;;;;;5054475;28;20091;-51
2022/09/19 11:50:39;;;;;;;16.00;2.78;;;17.90;98.80;;;;;;5051778;28;20081;-48
2022/09/19 11:53:22;;;;;;;15.55;2.50;;;17.70;99.20;;;;;;5053584;28;20513;-48
2022/09/19 11:55:54;;;;;;;10.98;2.38;;;17.40;98.30;;;;;;5036760;28;20045;-46
2022/09/19 11:58:24;;;;;;;18.27;3.35;;;17.10;98.80;;;;;;5054833;28;20063;-52
2022/09/19 12:00:55;;;;;;;16.35;3.13;;;16.80;99.40;;;;;;5049463;28;20123;-58
2022/09/19 12:03:26;;;;;;;12.40;2.80;;;16.40;99.90;;;;;;5032525;28;20056;-43
2022/09/19 12:06:11;;;;;;;;;;;16.10;99.90;;;;;;5043562;28;20053;-63
2022/09/19 12:09:02;;;;;;;10.93;2.25;;;15.80;99.90;;;;;;5045593;28;19974;-60
2022/09/19 12:11:33;;;;;;;15.27;2.53;;;15.50;99.90;;;;;;5053730;28;20532;-62
2022/09/19 12:14:02;;;;;;;18.88;3.03;;;15.30;99.90;;;;;;5040531;28;20124;-60
2022/09/19 12:16:35;;;;;;;13.63;2.75;;;15.10;99.90;;;;;;5036167;28;20053;-60
2022/09/19 12:19:04;;;;;;;9.35;2.00;;;15.10;99.90;;;;;;5048285;28;20556;-57
2022/09/19 12:21:38;;;;;;;15.52;2.78;;;15.00;99.90;;;;;;5035615;28;20052;-56
2022/09/19 12:26:54;;;;;;;10.52;1.67;;;15.00;99.90;;;;;;5032523;28;20071;-47
2022/09/19 12:29:23;;;;;;;10.02;1.80;;;15.10;99.90;;;;;;5042069;28;20481;-48
2022/09/19 12:31:53;;;;;;;18.65;2.53;;;15.20;99.90;;;;;;5053205;28;20095;-50
2022/09/19 12:34:28;;;;;;;13.02;2.65;;;15.30;99.90;;;;;;5053485;28;20049;-51
2022/09/19 12:36:57;;;;;;;13.13;2.72;;;15.50;99.90;;;;;;5052442;28;20140;-53
2022/09/19 12:39:32;;;;;;;14.15;2.28;;;15.70;99.90;;;;;;5050165;28;20072;-52
2022/09/19 12:42:00;;;;;;;16.02;2.70;;;15.90;99.90;;;;;;5015927;28;20049;-50
2022/09/19 12:44:31;;;;;;;14.52;2.58;;;16.10;99.90;;;;;;5033139;28;20085;-47
2022/09/19 12:47:01;;;;;;;14.27;2.40;;;16.20;99.90;;;;;;5033590;28;20095;-51
2022/09/19 12:49:35;;;;;;;19.17;3.28;;;16.30;99.90;;;;;;5033244;28;20053;-47
2022/09/19 12:52:08;;;;;;;16.00;2.80;;;16.40;99.90;;;;;;5019405;28;20566;-48
2022/09/19 12:54:37;;;;;;;16.45;2.67;;;16.60;99.90;;;;;;5031294;28;20061;-47
2022/09/19 12:57:06;;;;;;;16.33;2.33;;;16.80;99.90;;;;;;5037982;28;20064;-51
2022/09/19 12:59:35;;;;;;;17.08;2.58;;;17.00;99.90;;;;;;5045801;28;20079;-52
2022/09/19 13:02:03;;;;;;;20.10;2.60;;;17.10;99.90;;;;;;5039240;28;20061;-51
2022/09/19 13:04:34;;;;;;;12.65;2.25;;;17.30;99.90;;;;;;5050434;28;20179;-49
2022/09/19 13:07:08;;;;;;;13.35;2.88;;;17.20;99.90;;;;;;5052048;28;20041;-51